Time;durP1;ratioP1;P1;durP2;ratioP2;P2;SDS_P1;SDS_P2;PMS_P1;PMS_P2;Temp;Humidity;BMP_temperature;BMP_pressure;BME280_temperature;BME280_humidity;BME280_pressure;Samples;Min_cycle;Max_cycle;Signal;HPM_P1;HPM_P2
2022/10/23 00:02:58;;;;;;;37.47;14.07;;;12.00;99.90;;;;;;6295073;28;20485;-66
2022/10/23 00:06:04;;;;;;;17.63;13.83;;;11.90;99.90;;;;;;6313723;28;20812;-66
2022/10/23 00:09:09;;;;;;;14.30;12.60;;;11.90;99.90;;;;;;6331804;28;20487;-66
2022/10/23 00:12:13;;;;;;;17.00;12.10;;;12.00;99.90;;;;;;6334641;28;20953;-66
2022/10/23 00:15:19;;;;;;;18.70;13.97;;;12.00;99.90;;;;;;6335701;28;20474;-66
2022/10/23 00:18:23;;;;;;;42.63;14.77;;;12.00;99.90;;;;;;6334142;28;20510;-66
2022/10/23 00:21:26;;;;;;;17.07;14.40;;;11.90;99.90;;;;;;6303745;28;20469;-66
2022/10/23 00:24:29;;;;;;;23.70;14.43;;;12.00;99.90;;;;;;6295117;28;20470;-66
2022/10/23 00:27:33;;;;;;;29.80;14.47;;;12.00;99.90;;;;;;6296725;28;20477;-65
2022/10/23 00:30:38;;;;;;;16.70;13.70;;;12.00;99.90;;;;;;6298640;28;20798;-65
2022/10/23 00:33:42;;;;;;;15.80;13.53;;;12.10;99.90;;;;;;6302225;28;20480;-65
2022/10/23 00:36:45;;;;;;;20.17;14.60;;;12.20;99.90;;;;;;6304059;28;20469;-65
2022/10/23 00:39:48;;;;;;;28.07;14.20;;;12.20;99.90;;;;;;6338721;28;20560;-65
2022/10/23 00:42:51;;;;;;;12.53;10.20;;;12.10;99.90;;;;;;6342448;28;20456;-65
2022/10/23 00:45:56;;;;;;;13.83;12.00;;;12.10;99.90;;;;;;6341148;28;20443;-65
2022/10/23 00:49:00;;;;;;;10.63;9.50;;;12.10;99.90;;;;;;6340853;28;20466;-65
2022/10/23 00:52:07;;;;;;;10.20;9.07;;;12.10;99.90;;;;;;6337316;28;20888;-65
2022/10/23 00:55:11;;;;;;;10.33;9.33;;;12.00;99.90;;;;;;6340919;28;20532;-65
2022/10/23 00:58:15;;;;;;;9.47;8.57;;;11.90;99.90;;;;;;6338055;28;20541;-65
2022/10/23 01:01:22;;;;;;;9.47;8.57;;;11.90;99.90;;;;;;6339366;28;20490;-65
2022/10/23 01:04:26;;;;;;;9.53;8.63;;;11.80;99.90;;;;;;6338026;28;20491;-66
2022/10/23 01:07:36;;;;;;;10.83;9.00;;;11.70;99.90;;;;;;6336890;27;20522;-65
2022/10/23 01:10:45;;;;;;;7.93;7.27;;;11.70;99.90;;;;;;6339573;28;20502;-65
2022/10/23 01:13:58;;;;;;;9.80;8.30;;;11.70;99.90;;;;;;6338645;28;20468;-66
2022/10/23 01:17:09;;;;;;;12.87;7.53;;;11.60;99.90;;;;;;6352218;28;20483;-65
2022/10/23 01:20:26;;;;;;;8.53;7.63;;;11.60;99.90;;;;;;6352120;28;20480;-65
2022/10/23 01:24:00;;;;;;;7.60;6.90;;;11.60;99.90;;;;;;6352356;28;20557;-65
2022/10/23 01:27:23;;;;;;;7.27;6.67;;;11.50;99.90;;;;;;6352271;28;20509;-65
2022/10/23 01:30:26;;;;;;;7.50;6.80;;;11.50;99.90;;;;;;6351881;28;20540;-65
2022/10/23 01:33:35;;;;;;;7.63;6.90;;;11.50;99.90;;;;;;6352094;28;20472;-65
2022/10/23 01:36:41;;;;;;;7.20;6.40;;;11.40;99.90;;;;;;6351650;28;20860;-65
2022/10/23 01:39:48;;;;;;;6.83;6.23;;;11.30;99.90;;;;;;6351424;28;20484;-63
2022/10/23 01:42:56;;;;;;;8.07;7.37;;;11.30;99.90;;;;;;6348641;28;20441;-63
2022/10/23 01:46:02;;;;;;;8.23;7.53;;;11.20;99.90;;;;;;6324706;28;20460;-63
2022/10/23 01:49:10;;;;;;;7.90;7.10;;;11.20;99.90;;;;;;6337593;28;20460;-63
2022/10/23 01:52:16;;;;;;;8.80;6.90;;;11.20;99.90;;;;;;6337167;27;20470;-63
2022/10/23 01:55:20;;;;;;;8.30;7.60;;;11.20;99.90;;;;;;6333703;28;20479;-63
2022/10/23 01:58:26;;;;;;;8.33;7.47;;;11.20;99.90;;;;;;6334679;28;20871;-63
2022/10/23 02:01:31;;;;;;;7.53;6.80;;;11.20;99.90;;;;;;6331377;28;20483;-63
2022/10/23 02:04:40;;;;;;;6.07;5.57;;;11.10;99.90;;;;;;6330799;28;20975;-63
2022/10/23 02:07:44;;;;;;;6.87;6.23;;;11.10;99.90;;;;;;6326256;28;20476;-64
2022/10/23 02:10:53;;;;;;;7.97;6.07;;;11.10;99.90;;;;;;6334151;28;20468;-63
2022/10/23 02:14:03;;;;;;;5.87;5.30;;;11.10;99.90;;;;;;6336678;27;20467;-63
2022/10/23 02:17:15;;;;;;;6.77;6.17;;;11.00;99.90;;;;;;6339680;28;20548;-63
2022/10/23 02:20:23;;;;;;;7.00;5.37;;;11.00;99.90;;;;;;6333836;28;20477;-63
2022/10/23 02:23:32;;;;;;;8.30;6.93;;;10.90;99.90;;;;;;6343788;28;20477;-63
2022/10/23 02:26:41;;;;;;;8.63;7.63;;;10.80;99.90;;;;;;6354919;28;20483;-62
2022/10/23 02:29:49;;;;;;;9.20;7.67;;;10.70;99.90;;;;;;6358145;28;20967;-63
2022/10/23 02:32:54;;;;;;;16.40;8.47;;;10.70;99.90;;;;;;6351278;28;21031;-62
2022/10/23 02:35:58;;;;;;;10.77;8.20;;;10.70;99.90;;;;;;6350993;28;20467;-63
2022/10/23 02:39:01;;;;;;;9.93;7.93;;;10.70;99.90;;;;;;6350960;28;20471;-63
2022/10/23 02:42:10;;;;;;;7.00;6.40;;;10.80;99.90;;;;;;6350666;28;20473;-63
2022/10/23 02:45:23;;;;;;;7.10;6.30;;;10.90;99.90;;;;;;6351118;28;20849;-63
2022/10/23 02:48:33;;;;;;;9.23;7.37;;;10.90;99.90;;;;;;6350892;28;20467;-63
2022/10/23 02:51:49;;;;;;;7.67;5.63;;;11.00;99.90;;;;;;6350649;28;20533;-63
2022/10/23 02:55:14;;;;;;;7.70;7.00;;;11.00;99.90;;;;;;6349339;28;20459;-63
2022/10/23 02:58:27;;;;;;;7.30;6.60;;;10.90;99.90;;;;;;6350625;27;20479;-63
2022/10/23 03:01:40;;;;;;;7.17;6.47;;;10.90;99.90;;;;;;6350453;28;20480;-63
2022/10/23 03:04:45;;;;;;;10.30;6.97;;;11.00;99.90;;;;;;6350646;28;20772;-63
2022/10/23 03:07:48;;;;;;;8.30;7.60;;;11.00;99.90;;;;;;6350387;28;20483;-63
2022/10/23 03:10:52;;;;;;;7.80;7.10;;;10.90;99.90;;;;;;6350027;28;20486;-63
2022/10/23 03:13:55;;;;;;;19.53;7.77;;;11.00;99.90;;;;;;6350593;28;20788;-64
2022/10/23 03:16:59;;;;;;;10.27;7.70;;;10.90;99.90;;;;;;6350012;28;20472;-63
2022/10/23 03:20:02;;;;;;;8.03;7.23;;;10.90;99.90;;;;;;6349280;28;20478;-63
2022/10/23 03:23:06;;;;;;;12.10;7.80;;;11.00;99.90;;;;;;6349599;28;20478;-63
2022/10/23 03:26:09;;;;;;;13.97;6.30;;;11.00;99.90;;;;;;6349991;28;20474;-63
2022/10/23 03:29:12;;;;;;;27.27;7.40;;;10.90;99.90;;;;;;6349534;28;20943;-64
2022/10/23 03:32:16;;;;;;;10.03;7.17;;;10.90;99.90;;;;;;6349792;28;20478;-63
2022/10/23 03:35:19;;;;;;;15.37;6.40;;;10.80;99.90;;;;;;6349420;28;20498;-63
2022/10/23 03:38:23;;;;;;;19.10;6.57;;;10.80;99.90;;;;;;6349695;28;20475;-64
2022/10/23 03:41:26;;;;;;;8.97;6.90;;;10.70;99.90;;;;;;6349586;28;20508;-63
2022/10/23 03:44:30;;;;;;;15.20;7.40;;;10.70;99.90;;;;;;6349549;28;20486;-63
2022/10/23 03:47:39;;;;;;;7.27;6.57;;;10.70;99.90;;;;;;6349948;28;20480;-63
2022/10/23 03:50:43;;;;;;;7.13;6.20;;;10.80;99.90;;;;;;6349700;28;20464;-63
2022/10/23 03:53:46;;;;;;;6.83;6.13;;;10.80;99.90;;;;;;6349442;28;20475;-64
2022/10/23 03:56:49;;;;;;;6.10;5.60;;;10.70;99.90;;;;;;6349293;28;20475;-64
2022/10/23 03:59:58;;;;;;;7.40;4.90;;;10.70;99.90;;;;;;6349589;28;20484;-64
2022/10/23 04:03:03;;;;;;;5.13;4.60;;;10.60;99.90;;;;;;6349201;28;20837;-64
2022/10/23 04:06:06;;;;;;;5.47;4.93;;;10.60;99.90;;;;;;6352875;28;20947;-64
2022/10/23 04:09:10;;;;;;;5.23;4.73;;;10.50;99.90;;;;;;6354039;28;21015;-64
2022/10/23 04:12:18;;;;;;;4.90;4.50;;;10.50;99.90;;;;;;6354414;28;20970;-64
2022/10/23 04:15:21;;;;;;;4.43;4.07;;;10.50;99.90;;;;;;6354383;28;20472;-63
2022/10/23 04:18:25;;;;;;;7.77;4.33;;;10.40;99.90;;;;;;6354079;28;20547;-63
2022/10/23 04:21:28;;;;;;;4.47;3.00;;;10.40;99.90;;;;;;6354005;28;20479;-63
2022/10/23 04:24:32;;;;;;;3.90;3.30;;;10.30;99.90;;;;;;6353756;28;20471;-63
2022/10/23 04:27:35;;;;;;;4.03;2.73;;;10.30;99.90;;;;;;6353336;28;20479;-64
2022/10/23 04:30:38;;;;;;;3.37;3.17;;;10.30;99.90;;;;;;6353730;28;20467;-64
2022/10/23 04:33:43;;;;;;;3.73;2.80;;;10.30;99.90;;;;;;6355244;28;20517;-63
2022/10/23 04:36:46;;;;;;;2.53;2.33;;;10.20;99.90;;;;;;6369459;28;20537;-63
2022/10/23 04:39:49;;;;;;;3.80;3.33;;;10.20;99.90;;;;;;6360438;28;20482;-63
2022/10/23 04:42:52;;;;;;;3.80;2.90;;;10.10;99.90;;;;;;6353356;28;20949;-63
2022/10/23 04:45:55;;;;;;;7.33;3.03;;;10.10;99.90;;;;;;6353517;27;20454;-64
2022/10/23 04:49:00;;;;;;;3.43;3.13;;;10.10;99.90;;;;;;6353090;28;20459;-63
2022/10/23 04:52:03;;;;;;;3.67;3.37;;;10.10;99.90;;;;;;6353792;28;20444;-63
2022/10/23 04:55:08;;;;;;;3.43;3.13;;;10.00;99.90;;;;;;6353087;28;20448;-63
2022/10/23 04:58:11;;;;;;;3.90;3.40;;;10.00;99.90;;;;;;6353264;28;20777;-63
2022/10/23 05:01:14;;;;;;;3.87;3.57;;;10.00;99.90;;;;;;6353317;28;20464;-62
2022/10/23 05:04:19;;;;;;;3.50;3.20;;;9.90;99.90;;;;;;6353196;28;20471;-62
2022/10/23 05:07:22;;;;;;;2.90;2.70;;;9.80;99.90;;;;;;6352983;28;20954;-62
2022/10/23 05:10:25;;;;;;;3.50;3.20;;;9.80;99.90;;;;;;6352707;28;20471;-63
2022/10/23 05:13:28;;;;;;;3.83;3.13;;;9.80;99.90;;;;;;6353084;27;20463;-63
2022/10/23 05:16:38;;;;;;;3.73;3.43;;;9.80;99.90;;;;;;6352271;28;20483;-63
2022/10/23 05:19:47;;;;;;;4.17;3.83;;;9.80;99.90;;;;;;6352390;28;20779;-65
2022/10/23 05:22:53;;;;;;;5.63;5.23;;;9.80;99.90;;;;;;6352641;27;20501;-63
2022/10/23 05:25:56;;;;;;;4.70;4.30;;;9.70;99.90;;;;;;6352723;28;20476;-63
2022/10/23 05:28:59;;;;;;;5.90;5.30;;;9.70;99.90;;;;;;6352179;28;20486;-63
2022/10/23 05:32:05;;;;;;;7.93;6.03;;;9.80;99.90;;;;;;6352331;28;21023;-63
2022/10/23 05:35:15;;;;;;;7.60;6.77;;;9.80;99.90;;;;;;6352182;28;20470;-63
2022/10/23 05:38:19;;;;;;;5.93;5.40;;;9.90;99.90;;;;;;6352266;28;20484;-63
2022/10/23 05:41:22;;;;;;;10.03;7.23;;;9.90;99.90;;;;;;6351988;28;20480;-64
2022/10/23 05:44:25;;;;;;;9.33;6.00;;;10.00;99.90;;;;;;6352339;28;20486;-63
2022/10/23 05:47:30;;;;;;;7.13;6.53;;;10.10;99.90;;;;;;6351877;28;20468;-63
2022/10/23 05:50:37;;;;;;;9.60;6.83;;;10.10;99.90;;;;;;6352091;28;20464;-63
2022/10/23 05:53:40;;;;;;;6.83;6.13;;;10.20;99.90;;;;;;6352438;28;20476;-63
2022/10/23 05:56:44;;;;;;;8.03;6.80;;;10.30;99.90;;;;;;6351827;28;20966;-63
2022/10/23 05:59:47;;;;;;;7.20;6.50;;;10.40;99.90;;;;;;6352594;28;20487;-64
2022/10/23 06:02:50;;;;;;;5.57;5.10;;;10.50;99.90;;;;;;6352480;27;20464;-64
2022/10/23 06:05:55;;;;;;;6.30;5.57;;;10.60;99.90;;;;;;6355982;28;20807;-63
2022/10/23 06:08:58;;;;;;;6.13;5.73;;;10.60;99.90;;;;;;6353192;28;20472;-63
2022/10/23 06:12:01;;;;;;;8.03;5.50;;;10.70;99.90;;;;;;6353025;28;20468;-63
2022/10/23 06:15:06;;;;;;;6.37;5.80;;;10.70;99.90;;;;;;6352041;28;20978;-63
2022/10/23 06:18:09;;;;;;;9.27;5.43;;;10.80;99.90;;;;;;6350986;28;20476;-63
2022/10/23 06:21:14;;;;;;;6.50;5.90;;;10.90;99.90;;;;;;6351047;27;20506;-63
2022/10/23 06:24:17;;;;;;;6.87;6.27;;;11.00;99.90;;;;;;6351543;28;20486;-63
2022/10/23 06:27:20;;;;;;;5.70;5.20;;;11.10;99.90;;;;;;6350838;28;20766;-63
2022/10/23 06:30:24;;;;;;;5.87;5.40;;;11.20;99.90;;;;;;6350695;28;20479;-63
2022/10/23 06:33:27;;;;;;;6.40;5.90;;;11.30;99.90;;;;;;6350826;28;20463;-63
2022/10/23 06:36:31;;;;;;;6.10;5.60;;;11.30;99.90;;;;;;6351151;28;20474;-63
2022/10/23 06:39:35;;;;;;;5.60;5.20;;;11.30;99.90;;;;;;6351202;28;20475;-63
2022/10/23 06:42:38;;;;;;;6.53;6.00;;;11.40;99.90;;;;;;6351425;28;20476;-63
2022/10/23 06:45:42;;;;;;;5.90;5.50;;;11.60;99.90;;;;;;6351508;28;20585;-64
2022/10/23 06:48:45;;;;;;;4.73;4.43;;;11.80;99.90;;;;;;6350902;28;20475;-64
2022/10/23 06:51:50;;;;;;;6.50;5.90;;;12.10;99.90;;;;;;6363738;27;20524;-64
2022/10/23 06:54:53;;;;;;;5.93;5.53;;;12.30;99.90;;;;;;6364498;28;20455;-63
2022/10/23 06:57:56;;;;;;;5.40;4.90;;;12.40;99.90;;;;;;6352096;28;20464;-64
2022/10/23 07:01:01;;;;;;;5.73;5.33;;;12.50;99.90;;;;;;6350515;28;20750;-63
2022/10/23 07:04:04;;;;;;;6.40;5.90;;;12.40;99.90;;;;;;6348739;28;20520;-63
2022/10/23 07:07:09;;;;;;;7.17;6.57;;;12.40;99.90;;;;;;6338119;28;20448;-63
2022/10/23 07:10:12;;;;;;;12.10;6.87;;;12.40;99.90;;;;;;6326240;28;20468;-64
2022/10/23 07:13:21;;;;;;;7.13;6.53;;;12.30;99.90;;;;;;6324445;28;20465;-63
2022/10/23 07:16:24;;;;;;;8.00;7.20;;;12.40;99.90;;;;;;6325466;28;20464;-64
2022/10/23 07:19:28;;;;;;;31.17;9.20;;;12.30;99.90;;;;;;6325435;28;20472;-64
2022/10/23 07:22:32;;;;;;;14.63;6.93;;;12.10;99.90;;;;;;6324985;28;20498;-64
2022/10/23 07:25:35;;;;;;;8.77;6.50;;;12.20;99.90;;;;;;6325682;28;20472;-64
2022/10/23 07:28:40;;;;;;;35.07;8.27;;;12.30;99.90;;;;;;6324689;28;20464;-64
2022/10/23 07:31:43;;;;;;;21.43;7.87;;;12.40;99.90;;;;;;6325391;28;20468;-64
2022/10/23 07:34:46;;;;;;;12.30;7.13;;;12.60;99.90;;;;;;6324476;28;20468;-64
2022/10/23 07:37:51;;;;;;;7.63;7.03;;;12.50;99.90;;;;;;6325355;28;20468;-64
2022/10/23 07:40:56;;;;;;;7.10;6.50;;;12.30;99.90;;;;;;6323938;28;20967;-64
2022/10/23 07:43:59;;;;;;;7.13;6.43;;;12.30;99.90;;;;;;6324144;28;20518;-64
2022/10/23 07:47:02;;;;;;;11.97;7.20;;;12.50;99.90;;;;;;6324611;28;20692;-64
2022/10/23 07:50:06;;;;;;;7.10;6.50;;;12.90;99.90;;;;;;6324476;28;20811;-65
2022/10/23 07:53:16;;;;;;;6.70;6.10;;;13.20;99.90;;;;;;6324208;28;21094;-64
2022/10/23 07:56:24;;;;;;;6.63;6.13;;;13.70;99.90;;;;;;6324319;28;20790;-64
2022/10/23 07:59:27;;;;;;;6.93;6.33;;;14.30;99.90;;;;;;6324663;28;20797;-62
2022/10/23 08:02:30;;;;;;;6.63;6.13;;;14.80;99.90;;;;;;6324583;28;20461;-63
2022/10/23 08:05:33;;;;;;;5.90;5.40;;;15.20;99.90;;;;;;6324180;28;20813;-63
2022/10/23 08:08:38;;;;;;;6.50;5.90;;;15.50;99.90;;;;;;6324011;28;20476;-64
2022/10/23 08:11:41;;;;;;;5.57;5.17;;;15.70;99.90;;;;;;6324057;28;20939;-63
2022/10/23 08:14:45;;;;;;;5.80;5.40;;;16.20;99.90;;;;;;6324330;28;20525;-63
2022/10/23 08:17:48;;;;;;;6.23;5.73;;;16.60;99.90;;;;;;6328366;28;20478;-64
2022/10/23 08:20:51;;;;;;;6.53;6.03;;;16.80;99.90;;;;;;6336936;28;20471;-64
2022/10/23 08:23:58;;;;;;;7.50;6.90;;;16.90;99.90;;;;;;6335060;28;20951;-64
2022/10/23 08:27:01;;;;;;;7.60;6.93;;;17.00;99.90;;;;;;6322487;28;20476;-64
2022/10/23 08:30:05;;;;;;;6.63;6.13;;;17.30;99.90;;;;;;6322381;28;20541;-64
2022/10/23 08:33:09;;;;;;;7.00;6.50;;;17.50;99.90;;;;;;6330525;28;20460;-64
2022/10/23 08:36:18;;;;;;;34.23;30.70;;;17.90;99.90;;;;;;6303384;28;20851;-64
2022/10/23 08:39:23;;;;;;;17.27;15.57;;;18.00;99.90;;;;;;6319808;28;20468;-64
2022/10/23 08:42:27;;;;;;;9.20;8.47;;;18.50;99.90;;;;;;6302604;28;20482;-64
2022/10/23 08:45:34;;;;;;;8.17;7.57;;;18.60;99.90;;;;;;6321149;28;20786;-64
2022/10/23 08:48:42;;;;;;;8.40;7.70;;;18.60;99.90;;;;;;6300220;28;20259;-64
2022/10/23 08:51:48;;;;;;;7.77;7.17;;;18.60;99.90;;;;;;6323963;28;20226;-64
2022/10/23 08:55:07;;;;;;;7.07;6.43;;;19.80;99.90;;;;;;6303119;28;20580;-64
2022/10/23 08:58:15;;;;;;;7.77;7.07;;;21.90;97.80;;;;;;6302786;28;20581;-64
2022/10/23 09:01:34;;;;;;;8.13;7.50;;;24.30;93.40;;;;;;6303190;28;20294;-64
2022/10/23 09:04:37;;;;;;;8.73;8.03;;;26.90;81.70;;;;;;6308672;28;20230;-64
2022/10/23 09:07:56;;;;;;;7.90;7.20;;;27.80;71.00;;;;;;6320718;28;20237;-64
2022/10/23 09:11:07;;;;;;;9.37;8.53;;;27.00;68.50;;;;;;6311361;28;20222;-64
2022/10/23 09:14:33;;;;;;;9.17;8.47;;;26.00;69.90;;;;;;6316626;28;20238;-64
2022/10/23 09:17:38;;;;;;;8.00;7.43;;;25.00;72.20;;;;;;6317555;28;20223;-63
2022/10/23 09:20:45;;;;;;;8.50;7.90;;;24.20;74.40;;;;;;6339708;28;20719;-63
2022/10/23 09:23:48;;;;;;;10.77;10.00;;;23.70;76.00;;;;;;6332422;28;20234;-63
2022/10/23 09:26:54;;;;;;;9.07;8.47;;;23.90;76.80;;;;;;6326104;28;20665;-64
2022/10/23 09:29:58;;;;;;;13.60;12.50;;;23.90;77.60;;;;;;6327216;28;20238;-64
2022/10/23 09:33:13;;;;;;;12.33;11.43;;;24.30;75.90;;;;;;6307536;28;20647;-62
2022/10/23 09:36:22;;;;;;;14.30;13.13;;;23.50;76.70;;;;;;6319617;28;20242;-63
2022/10/23 09:39:29;;;;;;;9.47;8.60;;;23.30;79.20;;;;;;6325592;28;20234;-62
2022/10/23 09:42:34;;;;;;;7.53;6.93;;;23.00;79.00;;;;;;6330294;28;20225;-63
2022/10/23 09:45:40;;;;;;;8.23;7.73;;;22.60;80.50;;;;;;6303509;28;20310;-64
2022/10/23 09:48:43;;;;;;;7.50;6.90;;;22.10;82.10;;;;;;6325067;28;20222;-64
2022/10/23 09:51:52;;;;;;;7.97;7.40;;;22.00;84.10;;;;;;6301533;28;20223;-63
2022/10/23 09:54:58;;;;;;;7.10;6.60;;;21.70;85.50;;;;;;6300841;28;20678;-64
2022/10/23 09:58:02;;;;;;;7.23;6.63;;;21.60;88.70;;;;;;6301154;28;20651;-63
2022/10/23 10:01:06;;;;;;;6.97;6.47;;;22.40;87.10;;;;;;6301282;28;20199;-63
2022/10/23 10:04:09;;;;;;;6.40;5.90;;;23.10;83.10;;;;;;6301137;28;20231;-63
2022/10/23 10:07:20;;;;;;;6.73;6.23;;;23.40;82.70;;;;;;6305218;28;20230;-63
2022/10/23 10:10:23;;;;;;;6.80;6.40;;;25.80;76.40;;;;;;6302825;28;20680;-62
2022/10/23 10:13:50;;;;;;;7.30;6.70;;;27.70;68.20;;;;;;6302008;28;20233;-62
2022/10/23 10:17:00;;;;;;;5.53;5.13;;;28.00;65.50;;;;;;6308544;28;20233;-62
2022/10/23 10:20:18;;;;;;;6.60;6.00;;;27.80;63.30;;;;;;6325900;28;20233;-62
2022/10/23 10:23:32;;;;;;;6.80;6.20;;;27.10;63.80;;;;;;6325846;28;20226;-65
2022/10/23 10:26:43;;;;;;;7.30;6.70;;;26.60;65.50;;;;;;6325450;28;20314;-63
2022/10/23 10:30:02;;;;;;;7.90;7.30;;;26.60;65.20;;;;;;6309014;28;20237;-63
2022/10/23 10:33:11;;;;;;;6.20;5.60;;;28.30;61.90;;;;;;6300032;28;20237;-62
2022/10/23 10:36:28;;;;;;;6.97;6.47;;;30.40;56.30;;;;;;6300246;28;20237;-63
2022/10/23 10:39:40;;;;;;;6.10;5.60;;;31.80;51.90;;;;;;6322070;28;20241;-65
2022/10/23 10:43:00;;;;;;;5.70;5.22;;;32.10;48.90;;;;;;6345709;28;20323;-66
2022/10/23 10:46:13;;;;;;;5.75;5.25;;;32.30;48.10;;;;;;6350772;28;20216;-63
2022/10/23 10:49:32;;;;;;;4.82;4.53;;;32.70;47.40;;;;;;6349983;28;20558;-63
2022/10/23 10:52:45;;;;;;;5.10;4.80;;;33.20;45.30;;;;;;6350917;28;20290;-63
2022/10/23 10:55:53;;;;;;;4.60;4.30;;;33.90;44.20;;;;;;6350964;28;20283;-64
2022/10/23 10:58:59;;;;;;;5.95;5.60;;;34.60;42.80;;;;;;6349620;28;20233;-64
2022/10/23 11:02:20;;;;;;;5.55;5.15;;;35.00;41.70;;;;;;6350042;28;20226;-64
2022/10/23 11:05:30;;;;;;;5.70;5.30;;;36.50;39.90;;;;;;6350530;28;20233;-64
2022/10/23 11:08:36;;;;;;;6.97;5.53;;;37.30;37.80;;;;;;6349937;28;20694;-64
2022/10/23 11:11:59;;;;;;;5.82;5.30;;;36.70;37.10;;;;;;6350318;28;20535;-64
2022/10/23 11:15:04;;;;;;;5.30;4.90;;;36.90;37.20;;;;;;6349481;28;20241;-64
2022/10/23 11:18:17;;;;;;;4.40;3.83;;;36.80;36.90;;;;;;6349914;28;20230;-64
2022/10/23 11:21:30;;;;;;;3.83;3.55;;;36.70;35.60;;;;;;6349999;28;20239;-65
2022/10/23 11:25:04;;;;;;;4.50;4.20;;;36.90;35.40;;;;;;6349702;28;20228;-64
2022/10/23 11:28:23;;;;;;;3.97;3.72;;;36.30;36.60;;;;;;6334556;28;20244;-64
2022/10/23 11:31:38;;;;;;;4.15;3.85;;;36.50;36.30;;;;;;6324482;28;20684;-65
2022/10/23 11:35:01;;;;;;;4.47;4.18;;;36.30;35.60;;;;;;6322737;28;20229;-63
2022/10/23 11:38:16;;;;;;;4.40;4.10;;;35.70;36.80;;;;;;6322751;28;20241;-64
2022/10/23 11:41:25;;;;;;;3.60;2.92;;;35.90;36.70;;;;;;6323577;28;20661;-64
2022/10/23 11:44:41;;;;;;;3.72;3.42;;;36.00;36.00;;;;;;6324065;28;20318;-64
2022/10/23 11:47:44;;;;;;;3.92;3.63;;;35.70;36.30;;;;;;6322895;28;20264;-65
2022/10/23 11:50:55;;;;;;;4.18;3.88;;;35.50;36.60;;;;;;6323115;28;20259;-64
2022/10/23 11:54:25;;;;;;;5.85;2.85;;;35.10;36.50;;;;;;6324121;28;20257;-64
2022/10/23 11:57:29;;;;;;;3.92;3.58;;;34.60;37.70;;;;;;6324515;28;20652;-64
2022/10/23 12:00:49;;;;;;;5.40;3.70;;;33.70;38.90;;;;;;6324552;28;20236;-63
2022/10/23 12:03:56;;;;;;;4.38;3.83;;;33.30;40.20;;;;;;6323204;28;20234;-63
2022/10/23 12:07:04;;;;;;;3.47;3.15;;;33.50;40.40;;;;;;6324912;28;20205;-63
2022/10/23 12:10:27;;;;;;;4.70;4.30;;;32.90;41.10;;;;;;6339393;28;20226;-63
2022/10/23 12:13:46;;;;;;;4.55;4.15;;;32.80;41.50;;;;;;6340828;28;20692;-63
2022/10/23 12:16:49;;;;;;;4.95;4.57;;;32.50;42.10;;;;;;6326156;28;20537;-63
2022/10/23 12:19:54;;;;;;;4.93;3.90;;;32.60;42.00;;;;;;6324325;28;20229;-64
2022/10/23 12:23:31;;;;;;;4.22;3.30;;;32.60;41.80;;;;;;6324055;28;20275;-65
2022/10/23 12:26:53;;;;;;;3.85;3.55;;;32.90;41.60;;;;;;6324588;28;20302;-64
2022/10/23 12:30:11;;;;;;;4.18;2.78;;;33.20;40.90;;;;;;6328260;28;20606;-64
2022/10/23 12:33:25;;;;;;;5.30;4.90;;;34.30;38.90;;;;;;6328000;28;20254;-64
2022/10/23 12:36:43;;;;;;;2.97;2.70;;;34.70;37.60;;;;;;6328171;28;20243;-64
2022/10/23 12:39:52;;;;;;;2.78;2.20;;;34.60;36.10;;;;;;6328430;28;20237;-64
2022/10/23 12:42:59;;;;;;;2.65;2.45;;;33.50;38.30;;;;;;6328614;28;20222;-64
2022/10/23 12:46:05;;;;;;;1.73;1.63;;;35.90;35.50;;;;;;6328047;28;20530;-64
2022/10/23 12:49:15;;;;;;;2.55;2.00;;;38.70;31.00;;;;;;6329091;28;20230;-64
2022/10/23 12:52:20;;;;;;;2.42;2.08;;;41.10;28.90;;;;;;6328684;28;20235;-64
2022/10/23 12:55:30;;;;;;;3.33;2.08;;;40.90;27.70;;;;;;6328741;28;20244;-64
2022/10/23 12:58:37;;;;;;;2.10;1.88;;;40.40;28.10;;;;;;6328077;28;20317;-64
2022/10/23 13:01:41;;;;;;;2.05;1.65;;;40.60;28.10;;;;;;6328546;28;20234;-64
2022/10/23 13:04:47;;;;;;;1.45;1.33;;;40.70;27.10;;;;;;6328499;28;20312;-64
2022/10/23 13:07:51;;;;;;;1.73;1.63;;;40.40;26.80;;;;;;6328565;28;20244;-64
2022/10/23 13:10:57;;;;;;;2.92;1.90;;;39.50;27.10;;;;;;6327562;28;20262;-64
2022/10/23 13:14:01;;;;;;;2.90;1.38;;;38.20;28.00;;;;;;6328717;28;20240;-65
2022/10/23 13:17:07;;;;;;;1.90;1.70;;;36.80;29.00;;;;;;6328701;28;20249;-64
2022/10/23 13:20:22;;;;;;;3.05;2.35;;;35.00;31.40;;;;;;6327969;28;20370;-63
2022/10/23 13:23:30;;;;;;;2.63;2.03;;;34.00;33.40;;;;;;6327888;28;20700;-64
2022/10/23 13:26:43;;;;;;;2.35;2.15;;;34.00;33.70;;;;;;6327248;28;20613;-64
2022/10/23 13:29:47;;;;;;;1.95;1.75;;;34.00;33.20;;;;;;6326944;28;20248;-64
2022/10/23 13:32:51;;;;;;;2.40;2.00;;;33.30;34.50;;;;;;6327006;28;20575;-64
2022/10/23 13:35:57;;;;;;;1.63;1.52;;;32.40;35.60;;;;;;6326641;28;20237;-64
2022/10/23 13:39:02;;;;;;;3.42;2.33;;;31.70;36.40;;;;;;6326559;28;20236;-63
2022/10/23 13:42:16;;;;;;;3.58;1.85;;;31.10;37.40;;;;;;6327252;28;20230;-64
2022/10/23 13:45:23;;;;;;;1.90;1.30;;;30.30;38.40;;;;;;6327532;28;20222;-64
2022/10/23 13:48:28;;;;;;;2.90;1.77;;;29.20;40.20;;;;;;6327423;28;20245;-64
2022/10/23 13:51:37;;;;;;;2.03;1.93;;;28.30;42.40;;;;;;6327495;28;20596;-64
2022/10/23 13:54:44;;;;;;;2.77;1.93;;;27.40;44.30;;;;;;6326925;28;20221;-64
2022/10/23 13:57:49;;;;;;;2.17;1.97;;;26.60;46.40;;;;;;6326661;28;20252;-64
2022/10/23 14:00:53;;;;;;;4.80;2.50;;;25.90;48.50;;;;;;6322400;28;20245;-64
2022/10/23 14:03:57;;;;;;;2.47;2.27;;;25.20;50.30;;;;;;6326288;28;20329;-63
2022/10/23 14:07:01;;;;;;;2.90;2.20;;;24.70;51.80;;;;;;6325895;28;20649;-63
2022/10/23 14:10:05;;;;;;;2.50;2.30;;;24.30;52.60;;;;;;6326098;28;20226;-64
2022/10/23 14:13:09;;;;;;;3.27;2.00;;;23.80;53.80;;;;;;6326769;28;20264;-63
2022/10/23 14:16:14;;;;;;;2.80;2.30;;;23.30;55.20;;;;;;6327401;28;20238;-63
2022/10/23 14:19:18;;;;;;;2.20;2.00;;;23.00;55.90;;;;;;6326704;28;20263;-63
2022/10/23 14:22:22;;;;;;;6.70;3.00;;;22.80;56.90;;;;;;6326706;28;20238;-64
2022/10/23 14:25:26;;;;;;;2.83;2.57;;;22.60;58.40;;;;;;6326437;28;20248;-64
2022/10/23 14:28:31;;;;;;;2.60;2.40;;;22.30;59.60;;;;;;6326108;28;20282;-64
2022/10/23 14:31:34;;;;;;;3.50;2.53;;;22.20;61.40;;;;;;6327013;28;20240;-64
2022/10/23 14:34:41;;;;;;;4.00;2.80;;;22.00;63.00;;;;;;6326182;28;20283;-64
2022/10/23 14:37:44;;;;;;;3.30;3.00;;;21.80;64.90;;;;;;6327155;28;20249;-64
2022/10/23 14:40:48;;;;;;;2.90;2.70;;;21.60;66.60;;;;;;6329098;28;20245;-64
2022/10/23 14:43:54;;;;;;;3.70;3.30;;;21.50;68.00;;;;;;6327354;28;20233;-64
2022/10/23 14:46:58;;;;;;;3.10;2.80;;;21.30;69.60;;;;;;6326443;28;20662;-63
2022/10/23 14:50:02;;;;;;;3.53;2.73;;;21.20;71.10;;;;;;6324666;28;20233;-63
2022/10/23 14:53:06;;;;;;;3.33;3.03;;;21.10;72.30;;;;;;6325617;28;20261;-63
2022/10/23 14:56:09;;;;;;;2.70;2.50;;;20.90;73.40;;;;;;6325468;28;20226;-63
2022/10/23 14:59:14;;;;;;;3.53;3.00;;;20.70;74.70;;;;;;6325664;28;20332;-63
2022/10/23 15:02:18;;;;;;;5.43;3.40;;;20.70;75.90;;;;;;6321516;28;20295;-63
2022/10/23 15:05:22;;;;;;;4.87;3.23;;;20.50;78.40;;;;;;6336713;28;20245;-62
2022/10/23 15:08:26;;;;;;;3.37;3.07;;;20.40;80.10;;;;;;6341462;28;20241;-63
2022/10/23 15:11:29;;;;;;;7.60;2.87;;;20.30;81.50;;;;;;6326304;28;20237;-63
2022/10/23 15:14:34;;;;;;;3.00;2.70;;;20.20;82.70;;;;;;6325162;28;20219;-63
2022/10/23 15:17:37;;;;;;;6.80;3.43;;;20.10;84.00;;;;;;6324896;28;20231;-63
2022/10/23 15:20:41;;;;;;;6.23;3.07;;;20.00;85.70;;;;;;6324490;28;20317;-63
2022/10/23 15:23:46;;;;;;;5.70;4.30;;;19.80;88.10;;;;;;6325462;28;20241;-63
2022/10/23 15:26:50;;;;;;;5.67;4.50;;;19.70;90.30;;;;;;6324374;28;20238;-63
2022/10/23 15:29:55;;;;;;;4.20;3.80;;;19.50;91.00;;;;;;6324927;28;20249;-63
2022/10/23 15:32:59;;;;;;;4.13;3.83;;;19.40;92.20;;;;;;6324477;28;20239;-64
2022/10/23 15:36:04;;;;;;;7.80;4.23;;;19.30;93.30;;;;;;6325021;28;20230;-64
2022/10/23 15:39:09;;;;;;;14.23;7.90;;;19.20;94.20;;;;;;6324471;28;20239;-64
2022/10/23 15:42:13;;;;;;;8.73;6.60;;;19.00;94.90;;;;;;6325272;28;20279;-63
2022/10/23 15:45:18;;;;;;;9.40;5.10;;;19.00;95.80;;;;;;6324512;28;20242;-63
2022/10/23 15:48:22;;;;;;;6.27;5.70;;;18.80;96.90;;;;;;6324742;28;20850;-63
2022/10/23 15:51:26;;;;;;;37.67;34.47;;;18.80;97.90;;;;;;6324686;28;20522;-63
2022/10/23 15:54:30;;;;;;;18.03;16.53;;;18.60;98.50;;;;;;6324878;28;20226;-63
2022/10/23 15:57:35;;;;;;;9.83;8.93;;;18.50;99.10;;;;;;6324409;28;20689;-64
2022/10/23 16:00:43;;;;;;;11.30;9.60;;;18.30;99.80;;;;;;6325849;28;20279;-64
2022/10/23 16:03:47;;;;;;;7.00;6.30;;;18.20;99.90;;;;;;6330003;28;20947;-64
2022/10/23 16:06:52;;;;;;;15.37;13.70;;;18.20;99.90;;;;;;6320984;28;20496;-63
2022/10/23 16:09:56;;;;;;;59.27;38.57;;;18.10;99.90;;;;;;6324544;28;20491;-63
2022/10/23 16:13:01;;;;;;;59.00;38.00;;;17.90;99.90;;;;;;6329250;28;20441;-63